createdAt,value
2019-04-25T00:01:48.958Z,65.30
2019-04-25T00:04:15.705Z,65.50
2019-04-25T00:06:42.868Z,65.60
2019-04-25T00:09:12.294Z,66.00
2019-04-25T00:11:39.297Z,66.10
2019-04-25T00:14:05.767Z,66.10
2019-04-25T00:16:34.018Z,66.30
2019-04-25T00:19:01.871Z,66.50
2019-04-25T00:21:31.789Z,66.30
2019-04-25T00:24:06.514Z,66.50
2019-04-25T00:26:34.970Z,66.20
2019-04-25T00:29:01.960Z,66.90
2019-04-25T00:31:29.785Z,66.70
2019-04-25T00:33:57.320Z,66.50
2019-04-25T00:36:23.569Z,66.80
2019-04-25T00:38:50.284Z,66.70
2019-04-25T00:41:17.961Z,66.70
2019-04-25T00:43:45.290Z,66.70
2019-04-25T00:46:11.590Z,66.40
2019-04-25T00:48:37.933Z,66.50
2019-04-25T00:51:04.381Z,66.60
2019-04-25T00:53:32.263Z,66.40
2019-04-25T00:55:58.668Z,66.30
2019-04-25T00:58:44.426Z,66.30
2019-04-25T01:01:25.713Z,66.10
2019-04-25T01:03:53.659Z,66.30
2019-04-25T01:06:21.966Z,66.30
2019-04-25T01:08:48.297Z,66.10
2019-04-25T01:11:14.741Z,66.40
2019-04-25T01:13:42.261Z,66.70
2019-04-25T01:16:08.873Z,66.80
2019-04-25T01:18:35.470Z,67.20
2019-04-25T01:21:04.467Z,67.60
2019-04-25T01:23:31.030Z,67.30
2019-04-25T01:25:57.592Z,68.00
2019-04-25T01:28:24.428Z,68.20
2019-04-25T01:30:50.875Z,68.10
2019-04-25T01:33:17.825Z,68.20
2019-04-25T01:35:58.093Z,67.90
2019-04-25T01:38:26.332Z,67.70
2019-04-25T01:40:55.473Z,67.70
2019-04-25T01:43:26.513Z,67.80
2019-04-25T01:45:54.863Z,67.50
2019-04-25T01:48:23.357Z,67.50
2019-04-25T01:50:50.521Z,67.50
2019-04-25T01:53:16.932Z,67.70
2019-04-25T01:55:53.779Z,67.50
2019-04-25T01:58:11.529Z,67.60
2019-04-25T02:00:50.381Z,67.70
2019-04-25T02:03:18.150Z,67.60
2019-04-25T02:05:44.686Z,67.80
2019-04-25T02:08:11.138Z,67.80
2019-04-25T02:10:37.822Z,67.80
2019-04-25T02:13:06.162Z,67.90
2019-04-25T02:15:33.471Z,67.90
2019-04-25T02:18:00.344Z,69.00
2019-04-25T02:20:27.185Z,68.40
2019-04-25T02:22:55.081Z,69.30
2019-04-25T02:25:22.998Z,69.20
2019-04-25T02:27:50.320Z,69.20
2019-04-25T02:30:17.181Z,69.50
2019-04-25T02:32:44.179Z,69.60
2019-04-25T02:35:11.065Z,69.60
2019-04-25T02:37:37.453Z,69.90
2019-04-25T02:40:08.136Z,70.20
2019-04-25T02:42:34.453Z,70.10
2019-04-25T02:45:08.168Z,70.40
2019-04-25T02:47:38.278Z,70.10
2019-04-25T02:50:24.604Z,70.00
2019-04-25T02:52:55.578Z,70.40
2019-04-25T02:55:30.759Z,70.80
2019-04-25T02:57:49.225Z,70.90
2019-04-25T03:00:24.624Z,71.50
2019-04-25T03:02:50.345Z,71.40
2019-04-25T03:05:16.786Z,71.40
2019-04-25T03:07:44.523Z,72.10
2019-04-25T03:10:11.377Z,72.10
2019-04-25T03:12:37.738Z,72.30
2019-04-25T03:15:07.931Z,72.30
2019-04-25T03:17:34.279Z,73.20
2019-04-25T03:20:08.093Z,73.60
2019-04-25T03:22:34.368Z,73.20
2019-04-25T03:25:02.032Z,73.70
2019-04-25T03:27:29.425Z,73.90
2019-04-25T03:29:55.879Z,73.50
2019-04-25T03:32:27.929Z,73.30
2019-04-25T03:34:50.476Z,73.50
2019-04-25T03:37:16.816Z,72.90
2019-04-25T03:39:43.633Z,73.90
2019-04-25T03:42:10.148Z,74.00
2019-04-25T03:44:36.637Z,73.70
2019-04-25T03:47:05.294Z,72.80
2019-04-25T03:49:31.388Z,72.80
2019-04-25T03:51:57.729Z,73.40
2019-04-25T03:54:24.073Z,73.50
2019-04-25T03:56:54.382Z,73.90
2019-04-25T03:59:18.561Z,73.70
2019-04-25T04:01:44.897Z,73.70
2019-04-25T04:04:11.353Z,75.00
2019-04-25T04:06:37.593Z,75.10
2019-04-25T04:09:06.463Z,74.80
2019-04-25T04:11:33.749Z,74.90
2019-04-25T04:14:00.226Z,74.40
2019-04-25T04:16:28.460Z,73.50
2019-04-25T04:18:55.109Z,73.50
2019-04-25T04:21:23.581Z,73.40
2019-04-25T04:23:52.003Z,73.80
2019-04-25T04:26:18.438Z,74.40
2019-04-25T04:28:44.992Z,73.80
2019-04-25T04:31:12.238Z,74.20
2019-04-25T04:33:39.584Z,73.90
2019-04-25T04:36:07.340Z,73.00
2019-04-25T04:38:34.324Z,72.40
2019-04-25T04:41:00.745Z,72.30
2019-04-25T04:43:27.094Z,72.30
2019-04-25T04:45:54.112Z,71.50
2019-04-25T04:48:20.499Z,71.90
2019-04-25T04:50:46.958Z,72.30
2019-04-25T04:53:14.927Z,71.30
2019-04-25T04:55:42.871Z,71.00
2019-04-25T04:58:10.377Z,78.00
2019-04-25T05:00:37.634Z,74.80
2019-04-25T05:03:06.022Z,71.80
2019-04-25T05:05:49.283Z,63.80
2019-04-25T05:08:26.506Z,65.00
2019-04-25T05:10:54.486Z,65.70
2019-04-25T05:13:21.018Z,66.30
2019-04-25T05:15:47.461Z,67.40
2019-04-25T05:18:15.763Z,67.90
2019-04-25T05:20:42.266Z,67.80
2019-04-25T05:23:09.141Z,68.10
2019-04-25T05:25:35.496Z,68.50
2019-04-25T05:28:03.526Z,68.20
2019-04-25T05:30:43.934Z,67.90
2019-04-25T05:33:10.170Z,67.50
2019-04-25T05:35:36.510Z,67.40
2019-04-25T05:38:03.441Z,67.40
2019-04-25T05:40:29.816Z,67.20
2019-04-25T05:42:58.152Z,66.00
2019-04-25T05:45:26.533Z,66.20
2019-04-25T05:47:54.106Z,66.50
2019-04-25T05:50:20.529Z,65.80
2019-04-25T05:52:46.889Z,65.30
2019-04-25T05:55:15.886Z,65.00
2019-04-25T05:57:47.338Z,64.90
2019-04-25T06:00:10.487Z,64.40
2019-04-25T06:02:36.962Z,63.50
2019-04-25T06:05:06.004Z,63.20
2019-04-25T06:07:33.287Z,63.30
2019-04-25T06:10:14.439Z,62.20
2019-04-25T06:12:45.616Z,61.20
2019-04-25T06:15:13.250Z,61.30
2019-04-25T06:17:44.166Z,60.50
2019-04-25T06:20:13.462Z,60.30
2019-04-25T06:22:59.687Z,60.60
2019-04-25T06:25:32.292Z,60.00
2019-04-25T06:28:03.777Z,59.00
2019-04-25T06:30:31.577Z,58.90
2019-04-25T06:32:58.123Z,59.40
2019-04-25T06:35:26.101Z,59.00
2019-04-25T06:37:53.660Z,57.80
2019-04-25T06:40:20.593Z,57.90
2019-04-25T06:42:46.918Z,56.80
2019-04-25T06:45:15.882Z,56.40
2019-04-25T06:47:49.769Z,56.50
2019-04-25T06:50:16.310Z,56.50
2019-04-25T06:52:43.917Z,56.10
2019-04-25T06:55:10.440Z,55.90
2019-04-25T06:57:36.778Z,56.00
2019-04-25T07:00:09.015Z,56.80
2019-04-25T07:02:35.477Z,56.20
2019-04-25T07:05:04.814Z,57.20
2019-04-25T07:07:31.132Z,56.50
2019-04-25T07:09:57.486Z,55.40
2019-04-25T07:12:29.293Z,55.90
2019-04-25T07:14:54.830Z,55.90
2019-04-25T07:17:21.273Z,55.50
2019-04-25T07:19:47.622Z,56.00
2019-04-25T07:22:15.500Z,55.70
2019-04-25T07:24:42.041Z,55.80
2019-04-25T07:27:14.782Z,56.00
2019-04-25T07:29:59.312Z,57.20
2019-04-25T07:32:30.782Z,56.80
2019-04-25T07:34:55.898Z,57.80
2019-04-25T07:37:22.325Z,58.50
2019-04-25T07:39:48.992Z,57.80
2019-04-25T07:42:15.341Z,58.00
2019-04-25T07:44:49.663Z,57.60
2019-04-25T07:47:09.729Z,57.70
2019-04-25T07:49:36.083Z,57.70
2019-04-25T07:52:03.607Z,58.50
2019-04-25T07:54:30.649Z,58.00
2019-04-25T07:56:56.908Z,57.70
2019-04-25T07:59:23.731Z,58.50
2019-04-25T08:01:50.109Z,58.00
2019-04-25T08:04:16.447Z,58.80
2019-04-25T08:06:44.297Z,58.90
2019-04-25T08:09:11.545Z,58.00
2019-04-25T08:11:38.303Z,57.60
2019-04-25T08:14:24.248Z,58.00
2019-04-25T08:16:53.775Z,58.00
2019-04-25T08:19:23.600Z,58.30
2019-04-25T08:21:50.117Z,58.20
2019-04-25T08:24:16.761Z,57.80
2019-04-25T08:26:43.696Z,57.60
2019-04-25T08:29:10.258Z,57.60
2019-04-25T08:31:37.692Z,57.10
2019-04-25T08:34:04.234Z,57.00
2019-04-25T08:36:31.191Z,56.80
2019-04-25T08:38:57.558Z,56.80
2019-04-25T08:41:24.003Z,56.80
2019-04-25T08:43:50.586Z,57.20
2019-04-25T08:46:17.025Z,57.00
2019-04-25T08:49:05.959Z,56.00
2019-04-25T08:51:40.062Z,57.10
2019-04-25T08:54:11.432Z,56.20
2019-04-25T08:56:37.857Z,55.70
2019-04-25T08:59:09.373Z,55.50
2019-04-25T09:01:46.677Z,54.10
2019-04-25T09:04:15.021Z,54.80
2019-04-25T09:06:42.261Z,54.10
2019-04-25T09:09:08.723Z,53.80
2019-04-25T09:11:37.987Z,54.20
2019-04-25T09:14:03.688Z,54.00
2019-04-25T09:16:30.265Z,53.10
2019-04-25T09:18:56.613Z,53.10
2019-04-25T09:21:23.777Z,52.40
2019-04-25T09:23:50.378Z,51.90
2019-04-25T09:26:16.762Z,52.00
2019-04-25T09:28:45.345Z,51.00
2019-04-25T09:31:11.577Z,51.30
2019-04-25T09:33:37.917Z,50.60
2019-04-25T09:36:04.894Z,50.00
2019-04-25T09:38:33.894Z,50.10
2019-04-25T09:41:00.813Z,50.20
2019-04-25T09:43:27.166Z,50.00
2019-04-25T09:45:58.166Z,49.40
2019-04-25T09:48:26.300Z,48.70
2019-04-25T09:51:13.543Z,48.70
2019-04-25T09:53:45.976Z,48.40
2019-04-25T09:56:11.732Z,48.20
2019-04-25T09:58:44.640Z,48.20
2019-04-25T10:01:15.045Z,47.90
2019-04-25T10:03:43.525Z,48.20
2019-04-25T10:06:13.396Z,48.00
2019-04-25T10:08:39.805Z,47.50
2019-04-25T10:11:06.359Z,47.50
2019-04-25T10:13:33.702Z,47.80
2019-04-25T10:16:05.772Z,47.10
2019-04-25T10:18:33.463Z,47.20
2019-04-25T10:21:00.351Z,47.20
2019-04-25T10:23:26.817Z,47.60
2019-04-25T10:25:53.802Z,47.40
2019-04-25T10:28:20.317Z,47.80
2019-04-25T10:30:46.980Z,47.50
2019-04-25T10:33:14.302Z,47.10
2019-04-25T10:35:47.926Z,48.00
2019-04-25T10:38:09.145Z,47.20
2019-04-25T10:40:35.698Z,47.00
2019-04-25T10:43:03.925Z,46.50
2019-04-25T10:45:30.413Z,46.70
2019-04-25T10:47:56.760Z,47.40
2019-04-25T10:50:23.874Z,48.40
2019-04-25T10:52:50.251Z,47.60
2019-04-25T10:55:16.797Z,48.10
2019-04-25T10:57:45.172Z,47.80
2019-04-25T11:00:24.577Z,47.80
2019-04-25T11:02:51.837Z,48.20
2019-04-25T11:05:18.878Z,48.00
2019-04-25T11:07:45.217Z,48.20
2019-04-25T11:10:14.035Z,48.70
2019-04-25T11:12:41.400Z,49.40
2019-04-25T11:15:08.905Z,50.00
2019-04-25T11:17:35.245Z,50.20
2019-04-25T11:20:03.599Z,50.30
2019-04-25T11:22:30.050Z,50.70
2019-04-25T11:24:56.397Z,50.50
2019-04-25T11:27:23.990Z,51.70
2019-04-25T11:29:50.741Z,51.40
2019-04-25T11:32:19.902Z,51.70
2019-04-25T11:34:47.283Z,52.30
2019-04-25T11:37:14.668Z,52.50
2019-04-25T11:39:46.080Z,52.70
2019-04-25T11:42:13.123Z,52.70
2019-04-25T11:44:41.040Z,53.20
2019-04-25T11:47:08.681Z,53.40
2019-04-25T11:49:35.225Z,54.10
2019-04-25T11:52:03.129Z,54.40
2019-04-25T11:54:29.945Z,55.00
2019-04-25T11:56:56.511Z,55.30
2019-04-25T11:59:23.525Z,55.40
2019-04-25T12:01:50.282Z,55.40
2019-04-25T12:04:16.734Z,55.80
2019-04-25T12:06:45.728Z,56.30
2019-04-25T12:09:11.433Z,56.20
2019-04-25T12:11:37.873Z,56.00
2019-04-25T12:14:04.395Z,56.40
2019-04-25T12:16:30.874Z,56.70
2019-04-25T12:18:57.213Z,57.20
2019-04-25T12:21:24.017Z,56.40
2019-04-25T12:23:50.758Z,56.70
2019-04-25T12:26:17.074Z,57.20
2019-04-25T12:28:43.325Z,57.20
2019-04-25T12:31:09.801Z,57.20
2019-04-25T12:33:37.979Z,57.40
2019-04-25T12:36:04.969Z,57.30
2019-04-25T12:38:31.413Z,57.60
2019-04-25T12:40:57.761Z,57.80
2019-04-25T12:43:26.014Z,58.10
2019-04-25T12:45:54.369Z,58.10
2019-04-25T12:48:20.709Z,58.60
2019-04-25T12:50:47.921Z,58.50
2019-04-25T12:53:14.424Z,58.50
2019-04-25T12:55:40.973Z,58.70
2019-04-25T12:58:07.317Z,58.70
2019-04-25T13:00:34.237Z,59.40
2019-04-25T13:03:01.386Z,59.40
2019-04-25T13:05:27.865Z,59.80
2019-04-25T13:07:57.085Z,59.30
2019-04-25T13:10:23.680Z,59.40
2019-04-25T13:12:50.215Z,59.50
2019-04-25T13:15:17.656Z,60.00
2019-04-25T13:17:43.937Z,59.70
2019-04-25T13:20:11.109Z,61.10
2019-04-25T13:22:37.540Z,60.60
2019-04-25T13:25:05.697Z,60.40
2019-04-25T13:27:40.077Z,60.60
2019-04-25T13:30:17.639Z,60.70
2019-04-25T13:32:51.953Z,61.20
2019-04-25T13:35:23.475Z,60.50
2019-04-25T13:37:49.861Z,60.80
2019-04-25T13:40:17.257Z,60.80
2019-04-25T13:42:44.671Z,60.80
2019-04-25T13:45:12.130Z,60.40
2019-04-25T13:47:38.457Z,60.60
2019-04-25T13:50:06.906Z,60.20
2019-04-25T13:52:35.732Z,60.90
2019-04-25T13:55:01.651Z,60.10
2019-04-25T13:57:28.197Z,60.60
2019-04-25T13:59:54.788Z,60.10
2019-04-25T14:02:21.285Z,59.90
2019-04-25T14:04:47.770Z,60.50
2019-04-25T14:07:14.109Z,60.00
2019-04-25T14:09:40.461Z,60.40
2019-04-25T14:12:07.808Z,60.50
2019-04-25T14:14:35.999Z,59.90
2019-04-25T14:17:10.241Z,59.90
2019-04-25T14:19:50.501Z,60.30
2019-04-25T14:22:16.852Z,60.40
2019-04-25T14:24:44.055Z,60.30
2019-04-25T14:27:11.332Z,60.60
2019-04-25T14:29:37.692Z,60.90
2019-04-25T14:32:06.144Z,60.70
2019-04-25T14:34:33.801Z,60.70
2019-04-25T14:37:00.261Z,60.90
2019-04-25T14:39:27.474Z,61.40
2019-04-25T14:41:53.789Z,61.80
2019-04-25T14:44:20.249Z,61.80
2019-04-25T14:46:46.605Z,61.90
2019-04-25T14:49:13.286Z,61.80
2019-04-25T14:51:39.753Z,61.60
2019-04-25T14:54:08.156Z,62.00
2019-04-25T14:56:39.437Z,62.30
2019-04-25T14:59:05.933Z,62.70
2019-04-25T15:01:44.055Z,62.80
2019-04-25T15:04:00.421Z,63.10
2019-04-25T15:06:27.656Z,63.00
2019-04-25T15:08:54.148Z,63.10
2019-04-25T15:11:20.607Z,63.30
2019-04-25T15:13:46.861Z,63.40
2019-04-25T15:16:13.165Z,63.80
2019-04-25T15:18:46.636Z,64.20
2019-04-25T15:21:07.765Z,64.40
2019-04-25T15:23:34.105Z,64.70
2019-04-25T15:26:00.546Z,64.60
2019-04-25T15:28:27.554Z,64.70
2019-04-25T15:30:53.858Z,64.80
2019-04-25T15:33:20.313Z,64.90
2019-04-25T15:35:48.762Z,64.90
2019-04-25T15:38:24.587Z,65.10
2019-04-25T15:40:52.953Z,65.30
2019-04-25T15:43:27.638Z,65.60
2019-04-25T15:46:13.735Z,65.60
2019-04-25T15:48:40.705Z,65.70
2019-04-25T15:51:07.145Z,66.40
2019-04-25T15:53:33.595Z,66.40
2019-04-25T15:56:00.858Z,66.90
2019-04-25T15:58:27.614Z,66.60
2019-04-25T16:00:54.236Z,67.00
2019-04-25T16:03:20.685Z,66.70
2019-04-25T16:05:58.757Z,66.30
2019-04-25T16:08:26.619Z,66.40
2019-04-25T16:10:57.179Z,66.50
2019-04-25T16:13:23.477Z,66.40
2019-04-25T16:15:49.722Z,66.70
2019-04-25T16:18:16.387Z,67.00
2019-04-25T16:20:42.709Z,66.80
2019-04-25T16:23:09.677Z,66.80
2019-04-25T16:25:36.124Z,66.90
2019-04-25T16:28:02.645Z,66.70
2019-04-25T16:30:31.001Z,67.10
2019-04-25T16:32:57.441Z,66.90
2019-04-25T16:35:23.789Z,66.90
2019-04-25T16:37:50.233Z,67.00
2019-04-25T16:40:16.882Z,66.90
2019-04-25T16:42:43.232Z,66.90
2019-04-25T16:45:10.089Z,66.90
2019-04-25T16:47:37.346Z,66.30
2019-04-25T16:50:05.124Z,65.90
2019-04-25T16:52:31.766Z,65.80
2019-04-25T16:55:01.456Z,66.00
2019-04-25T16:57:27.777Z,65.30
2019-04-25T16:59:54.229Z,65.50
2019-04-25T17:02:32.409Z,65.60
2019-04-25T17:04:49.828Z,65.70
2019-04-25T17:07:19.526Z,65.40
2019-04-25T17:09:48.629Z,65.60
2019-04-25T17:12:16.262Z,65.90
2019-04-25T17:14:49.461Z,65.80
2019-04-25T17:17:23.422Z,66.60
2019-04-25T17:20:08.224Z,66.20
2019-04-25T17:22:35.114Z,66.30
2019-04-25T17:25:01.619Z,66.20
2019-04-25T17:27:27.962Z,66.00
2019-04-25T17:29:54.687Z,66.10
2019-04-25T17:32:50.323Z,66.00
2019-04-25T17:38:27.361Z,66.70
2019-04-25T17:40:54.178Z,65.80
2019-04-25T17:43:20.621Z,65.10
2019-04-25T17:45:46.893Z,64.70
2019-04-25T17:48:13.297Z,65.80
2019-04-25T17:50:39.785Z,64.80
2019-04-25T17:53:06.241Z,64.80
2019-04-25T17:55:33.349Z,65.30
2019-04-25T17:57:59.845Z,65.60
2019-04-25T18:00:33.923Z,64.90
2019-04-25T18:03:00.477Z,65.80
2019-04-25T18:05:27.020Z,66.80
2019-04-25T18:07:53.485Z,66.50
2019-04-25T18:10:19.841Z,66.80
2019-04-25T18:12:46.182Z,66.90
2019-04-25T18:15:14.721Z,67.20
2019-04-25T18:17:41.066Z,67.10
2019-04-25T18:20:09.405Z,67.00
2019-04-25T18:22:49.581Z,67.40
2019-04-25T18:25:17.822Z,67.50
2019-04-25T18:27:55.081Z,67.60
2019-04-25T18:30:21.529Z,68.00
2019-04-25T18:32:55.657Z,68.30
2019-04-25T18:35:24.016Z,68.20
2019-04-25T18:37:52.257Z,68.50
2019-04-25T18:40:23.436Z,68.70
2019-04-25T18:42:51.628Z,68.60
2019-04-25T18:45:19.974Z,68.80
2019-04-25T18:47:46.686Z,68.80
2019-04-25T18:50:15.024Z,68.80
2019-04-25T18:52:47.103Z,68.50
2019-04-25T18:55:31.689Z,68.20
2019-04-25T18:58:16.345Z,68.60
2019-04-25T19:00:45.739Z,68.60
2019-04-25T19:03:22.732Z,68.70
2019-04-25T19:06:02.197Z,68.90
2019-04-25T19:08:28.635Z,68.80
2019-04-25T19:10:55.136Z,69.00
2019-04-25T19:13:21.545Z,69.30
2019-04-25T19:15:47.901Z,69.50
2019-04-25T19:18:14.141Z,69.50
2019-04-25T19:20:41.644Z,69.30
2019-04-25T19:23:07.940Z,69.30
2019-04-25T19:25:34.301Z,69.60
2019-04-25T19:28:00.872Z,69.70
2019-04-25T19:30:27.305Z,69.60
2019-04-25T19:32:53.658Z,69.70
2019-04-25T19:35:20.009Z,69.90
2019-04-25T19:37:46.455Z,70.00
2019-04-25T19:40:26.637Z,69.60
2019-04-25T19:43:00.845Z,69.70
2019-04-25T19:45:27.281Z,69.50
2019-04-25T19:47:53.673Z,69.90
2019-04-25T19:50:25.067Z,70.10
2019-04-25T19:52:52.162Z,70.20
2019-04-25T19:55:18.694Z,70.10
2019-04-25T19:57:46.105Z,70.20
2019-04-25T20:00:16.054Z,69.80
2019-04-25T20:02:44.586Z,69.90
2019-04-25T20:05:24.546Z,69.40
2019-04-25T20:07:53.438Z,69.90
2019-04-25T20:10:31.317Z,70.00
2019-04-25T20:12:57.690Z,69.90
2019-04-25T20:15:24.145Z,70.10
2019-04-25T20:17:50.603Z,70.50
2019-04-25T20:20:24.092Z,70.40
2019-04-25T20:22:50.426Z,70.30
2019-04-25T20:25:16.880Z,70.50
2019-04-25T20:27:44.249Z,70.50
2019-04-25T20:30:11.757Z,70.40
2019-04-25T20:32:38.096Z,70.50
2019-04-25T20:35:04.510Z,71.20
2019-04-25T20:37:30.937Z,70.60
2019-04-25T20:39:57.285Z,70.80
2019-04-25T20:42:23.541Z,71.30
2019-04-25T20:44:49.785Z,71.20
2019-04-25T20:47:16.215Z,71.20
2019-04-25T20:49:42.476Z,71.60
2019-04-25T20:52:08.909Z,71.40
2019-04-25T20:54:35.354Z,71.70
2019-04-25T20:57:01.827Z,71.00
2019-04-25T20:59:28.171Z,71.00
2019-04-25T21:01:55.590Z,71.20
2019-04-25T21:04:40.773Z,71.90
2019-04-25T21:07:07.469Z,71.70
2019-04-25T21:09:33.870Z,72.10
2019-04-25T21:12:00.340Z,71.50
2019-04-25T21:14:28.577Z,72.10
2019-04-25T21:16:59.455Z,72.40
2019-04-25T21:19:27.741Z,72.50
2019-04-25T21:21:54.236Z,72.80
2019-04-25T21:24:20.438Z,72.60
2019-04-25T21:26:46.680Z,73.10
2019-04-25T21:29:13.215Z,73.40
2019-04-25T21:31:39.713Z,73.60
2019-04-25T21:34:06.056Z,73.40
2019-04-25T21:36:32.697Z,73.30
2019-04-25T21:38:59.601Z,73.40
2019-04-25T21:41:44.360Z,73.80
2019-04-25T21:44:11.006Z,73.40
2019-04-25T21:46:37.348Z,74.20
2019-04-25T21:49:03.905Z,74.70
2019-04-25T21:51:30.448Z,74.40
2019-04-25T21:53:57.309Z,74.80
2019-04-25T21:56:23.876Z,75.00
2019-04-25T21:58:50.222Z,75.00
2019-04-25T22:01:19.912Z,75.30
2019-04-25T22:03:46.169Z,75.50
2019-04-25T22:06:12.846Z,75.80
2019-04-25T22:08:39.204Z,75.90
2019-04-25T22:11:05.670Z,76.10
2019-04-25T22:13:32.442Z,76.10
2019-04-25T22:15:59.600Z,76.50
2019-04-25T22:18:26.420Z,76.90
2019-04-25T22:20:52.762Z,77.10
2019-04-25T22:23:19.141Z,77.50
2019-04-25T22:25:45.773Z,77.90
2019-04-25T22:28:12.147Z,77.80
2019-04-25T22:30:39.884Z,77.90
2019-04-25T22:33:10.785Z,78.20
2019-04-25T22:35:41.916Z,78.60
2019-04-25T22:38:08.549Z,78.40
2019-04-25T22:40:34.901Z,78.70
2019-04-25T22:43:01.735Z,79.10
2019-04-25T22:45:28.193Z,79.30
2019-04-25T22:47:54.741Z,79.50
2019-04-25T22:50:21.341Z,79.50
2019-04-25T22:52:47.777Z,79.70
2019-04-25T22:55:14.241Z,80.10
2019-04-25T22:57:40.781Z,80.20
2019-04-25T23:00:09.524Z,80.40
2019-04-25T23:02:37.869Z,80.40
2019-04-25T23:05:12.077Z,80.50
2019-04-25T23:07:34.664Z,80.60
2019-04-25T23:10:01.926Z,80.80
2019-04-25T23:12:29.268Z,81.10
2019-04-25T23:14:55.700Z,81.50
2019-04-25T23:17:21.957Z,81.50
2019-04-25T23:19:48.501Z,81.50
2019-04-25T23:22:14.945Z,81.80
2019-04-25T23:24:43.206Z,81.90
2019-04-25T23:27:23.469Z,81.90
2019-04-25T23:29:49.825Z,82.20
2019-04-25T23:32:16.374Z,82.30
2019-04-25T23:34:42.721Z,82.30
2019-04-25T23:37:09.077Z,83.10
2019-04-25T23:39:35.717Z,82.90
2019-04-25T23:42:02.280Z,83.10
2019-04-25T23:44:28.811Z,83.10
2019-04-25T23:46:55.437Z,83.60
2019-04-25T23:49:21.764Z,83.60
2019-04-25T23:51:48.376Z,84.00
2019-04-25T23:54:15.086Z,84.10
2019-04-25T23:56:41.506Z,84.00
2019-04-25T23:59:08.842Z,84.50
